createdAt,value
2019-05-03T00:08:41.522Z,100.00
2019-05-03T00:11:32.704Z,100.00
2019-05-03T00:14:08.002Z,100.00
2019-05-03T00:19:17.585Z,100.00
2019-05-03T00:21:46.925Z,100.00
2019-05-03T00:24:16.261Z,100.00
2019-05-03T00:26:45.608Z,100.00
2019-05-03T00:29:14.948Z,100.00
2019-05-03T00:31:44.298Z,100.00
2019-05-03T00:34:32.757Z,100.00
2019-05-03T00:42:38.741Z,100.00
2019-05-03T00:48:32.584Z,100.00
2019-05-03T00:51:07.318Z,100.00
2019-05-03T00:53:36.678Z,100.00
2019-05-03T00:56:06.089Z,100.00
2019-05-03T01:01:32.036Z,100.00
2019-05-03T01:04:07.045Z,100.00
2019-05-03T01:06:48.894Z,100.00
2019-05-03T01:12:13.749Z,100.00
2019-05-03T01:17:23.552Z,100.00
2019-05-03T01:19:52.900Z,100.00
2019-05-03T01:22:22.734Z,100.00
2019-05-03T01:25:12.383Z,100.00
2019-05-03T01:27:42.734Z,100.00
2019-05-03T01:30:18.337Z,100.00
2019-05-03T01:32:47.691Z,100.00
2019-05-03T01:35:17.046Z,100.00
2019-05-03T01:37:46.372Z,100.00
2019-05-03T01:40:15.721Z,100.00
2019-05-03T01:42:45.059Z,100.00
2019-05-03T01:45:14.475Z,100.00
2019-05-03T01:51:12.035Z,100.00
2019-05-03T01:56:58.779Z,100.00
2019-05-03T01:59:32.049Z,100.00
2019-05-03T02:02:26.221Z,100.00
2019-05-03T02:05:14.678Z,100.00
2019-05-03T02:07:44.034Z,100.00
2019-05-03T02:13:47.499Z,100.00
2019-05-03T02:16:16.771Z,100.00
2019-05-03T02:18:47.766Z,100.00
2019-05-03T02:21:17.183Z,100.00
2019-05-03T02:23:46.524Z,100.00
2019-05-03T02:26:15.879Z,100.00
2019-05-03T02:28:45.210Z,100.00
2019-05-03T02:31:14.569Z,100.00
2019-05-03T02:33:43.909Z,100.00
2019-05-03T02:36:13.759Z,100.00
2019-05-03T02:42:10.877Z,100.00
2019-05-03T02:44:46.103Z,100.00
2019-05-03T02:52:56.952Z,100.00
2019-05-03T02:55:26.481Z,100.00
2019-05-03T02:57:56.474Z,100.00
2019-05-03T03:01:06.680Z,100.00
2019-05-03T03:04:26.282Z,100.00
2019-05-03T03:40:01.737Z,100.00
2019-05-03T03:51:57.448Z,100.00
2019-05-03T04:00:37.361Z,100.00
2019-05-03T04:03:06.784Z,100.00
2019-05-03T04:05:36.202Z,100.00
2019-05-03T04:08:05.892Z,100.00
2019-05-03T04:11:21.935Z,100.00
2019-05-03T04:13:51.279Z,100.00
2019-05-03T04:21:57.050Z,100.00
2019-05-03T04:25:06.305Z,100.00
2019-05-03T04:27:36.487Z,100.00
2019-05-03T04:30:11.942Z,100.00
2019-05-03T04:32:41.296Z,100.00
2019-05-03T04:35:10.701Z,100.00
2019-05-03T04:37:40.053Z,100.00
2019-05-03T04:40:09.476Z,100.00
2019-05-03T04:42:38.819Z,100.00
2019-05-03T04:45:08.242Z,100.00
2019-05-03T04:47:37.591Z,100.00
2019-05-03T04:50:46.853Z,100.00
2019-05-03T04:53:16.378Z,100.00
2019-05-03T04:56:06.331Z,100.00
2019-05-03T04:58:36.606Z,100.00
2019-05-03T05:01:26.210Z,100.00
2019-05-03T05:04:05.181Z,100.00
2019-05-03T05:06:38.956Z,100.00
2019-05-03T05:09:08.711Z,100.00
2019-05-03T05:11:38.070Z,100.00
2019-05-03T05:14:07.418Z,100.00
2019-05-03T05:16:39.581Z,100.00
2019-05-03T05:19:46.144Z,100.00
2019-05-03T05:28:45.059Z,100.00
2019-05-03T05:31:15.192Z,100.00
2019-05-03T05:33:50.615Z,100.00
2019-05-03T05:36:19.966Z,100.00
2019-05-03T05:38:49.332Z,100.00
2019-05-03T05:41:18.677Z,100.00
2019-05-03T05:43:48.015Z,100.00
2019-05-03T05:48:59.466Z,100.00
2019-05-03T05:51:28.817Z,100.00
2019-05-03T05:54:05.230Z,100.00
2019-05-03T05:56:59.227Z,100.00
2019-05-03T05:59:47.678Z,100.00
2019-05-03T06:02:17.198Z,100.00
2019-05-03T06:04:46.538Z,100.00
2019-05-03T06:10:39.721Z,100.00
2019-05-03T06:13:28.171Z,100.00
2019-05-03T06:18:55.656Z,100.00
2019-05-03T06:21:44.824Z,100.00
2019-05-03T06:24:54.341Z,100.00
2019-05-03T06:30:50.241Z,100.00
2019-05-03T06:33:19.720Z,100.00
2019-05-03T06:35:49.046Z,100.00
2019-05-03T06:38:18.483Z,100.00
2019-05-03T06:40:47.832Z,100.00
2019-05-03T06:43:17.174Z,100.00
2019-05-03T06:45:50.406Z,100.00
2019-05-03T06:48:28.009Z,100.00
2019-05-03T06:51:00.339Z,100.00
2019-05-03T06:53:36.167Z,100.00
2019-05-03T06:56:05.586Z,100.00
2019-05-03T06:58:36.493Z,100.00
2019-05-03T07:07:06.237Z,100.00
2019-05-03T07:09:54.760Z,100.00
2019-05-03T07:12:25.056Z,100.00
2019-05-03T07:15:00.730Z,100.00
2019-05-03T07:17:30.066Z,100.00
2019-05-03T07:19:59.400Z,100.00
2019-05-03T07:22:28.746Z,100.00
2019-05-03T07:24:58.313Z,100.00
2019-05-03T07:27:27.757Z,100.00
2019-05-03T07:29:57.074Z,100.00
2019-05-03T07:32:26.417Z,100.00
2019-05-03T07:34:55.761Z,100.00
2019-05-03T07:37:25.094Z,100.00
2019-05-03T07:39:55.631Z,100.00
2019-05-03T07:42:25.699Z,100.00
2019-05-03T07:44:55.970Z,100.00
2019-05-03T07:47:25.420Z,100.00
2019-05-03T07:49:54.813Z,100.00
2019-05-03T07:52:25.891Z,100.00
2019-05-03T07:54:55.294Z,100.00
2019-05-03T07:57:26.231Z,100.00
2019-05-03T07:59:55.798Z,100.00
2019-05-03T08:02:27.524Z,100.00
2019-05-03T08:04:56.229Z,100.00
2019-05-03T08:07:25.895Z,100.00
2019-05-03T08:09:55.656Z,100.00
2019-05-03T08:12:25.190Z,100.00
2019-05-03T08:14:55.149Z,100.00
2019-05-03T08:17:25.521Z,100.00
2019-05-03T08:19:55.411Z,100.00
2019-05-03T08:22:25.509Z,100.00
2019-05-03T08:24:55.686Z,100.00
2019-05-03T08:27:25.333Z,100.00
2019-05-03T08:29:55.764Z,100.00
2019-05-03T08:32:38.912Z,92.56
2019-05-03T08:35:09.889Z,100.00
2019-05-03T08:37:40.896Z,99.57
2019-05-03T08:40:10.677Z,99.69
2019-05-03T08:42:40.014Z,92.40
2019-05-03T08:45:09.423Z,95.10
2019-05-03T08:47:38.750Z,98.37
2019-05-03T08:50:08.157Z,92.82
2019-05-03T08:52:37.483Z,91.01
2019-05-03T08:55:07.564Z,88.85
2019-05-03T08:57:36.911Z,97.52
2019-05-03T09:00:09.065Z,97.59
2019-05-03T09:02:38.396Z,89.41
2019-05-03T09:05:08.776Z,90.46
2019-05-03T09:07:38.103Z,94.07
2019-05-03T09:10:12.443Z,90.68
2019-05-03T09:12:55.544Z,85.66
2019-05-03T09:15:25.420Z,90.96
2019-05-03T09:17:55.369Z,82.53
2019-05-03T09:20:25.048Z,82.38
2019-05-03T09:22:55.205Z,84.34
2019-05-03T09:25:24.850Z,83.34
2019-05-03T09:27:55.250Z,89.46
2019-05-03T09:30:25.209Z,89.46
2019-05-03T09:32:55.687Z,98.72
2019-05-03T09:35:30.593Z,86.80
2019-05-03T09:37:56.152Z,90.03
2019-05-03T09:40:25.497Z,97.19
2019-05-03T09:42:55.168Z,85.53
2019-05-03T09:45:24.710Z,85.16
2019-05-03T09:47:55.204Z,80.53
2019-05-03T09:50:24.955Z,85.14
2019-05-03T09:52:55.447Z,90.91
2019-05-03T09:55:32.325Z,92.96
2019-05-03T09:58:01.841Z,92.96
2019-05-03T10:00:31.173Z,93.17
2019-05-03T10:03:00.516Z,68.03
2019-05-03T10:05:29.853Z,68.08
2019-05-03T10:07:59.692Z,68.08
2019-05-03T10:10:30.672Z,69.68
2019-05-03T10:13:00.180Z,74.15
2019-05-03T10:15:42.026Z,81.30
2019-05-03T10:18:12.990Z,82.10
2019-05-03T10:20:44.504Z,84.23
2019-05-03T10:23:24.810Z,82.43
2019-05-03T10:25:55.205Z,76.32
2019-05-03T10:28:25.194Z,76.89
2019-05-03T10:30:54.841Z,74.29
2019-05-03T10:33:26.205Z,71.47
2019-05-03T10:35:55.516Z,76.68
2019-05-03T10:38:24.913Z,68.94
2019-05-03T10:40:55.015Z,77.04
2019-05-03T10:43:24.866Z,77.04
2019-05-03T10:45:55.809Z,79.72
2019-05-03T10:48:25.205Z,71.85
2019-05-03T10:50:56.424Z,75.71
2019-05-03T10:53:27.198Z,75.79
2019-05-03T10:56:20.221Z,76.36
2019-05-03T10:58:51.164Z,81.28
2019-05-03T11:01:22.132Z,84.41
2019-05-03T11:03:51.476Z,76.17
2019-05-03T11:06:20.812Z,74.70
2019-05-03T11:08:50.153Z,76.84
2019-05-03T11:11:19.487Z,77.48
2019-05-03T11:13:48.816Z,79.07
2019-05-03T11:16:18.164Z,73.05
2019-05-03T11:18:47.491Z,71.67
2019-05-03T11:21:27.841Z,68.87
2019-05-03T11:23:47.863Z,68.87
2019-05-03T11:26:17.194Z,74.35
2019-05-03T11:28:46.825Z,68.47
2019-05-03T11:31:35.418Z,70.47
2019-05-03T11:34:06.576Z,68.68
2019-05-03T11:36:52.554Z,68.68
2019-05-03T11:39:21.896Z,67.23
2019-05-03T11:41:52.871Z,77.25
2019-05-03T11:44:40.322Z,77.25
2019-05-03T11:47:09.855Z,70.43
2019-05-03T11:49:39.223Z,70.08
2019-05-03T11:52:08.644Z,70.08
2019-05-03T11:54:37.971Z,69.15
2019-05-03T11:57:15.782Z,65.50
2019-05-03T11:59:45.380Z,61.51
2019-05-03T12:02:19.004Z,60.66
2019-05-03T12:04:48.335Z,58.79
2019-05-03T12:07:39.444Z,58.79
2019-05-03T12:10:14.906Z,60.69
2019-05-03T12:12:37.764Z,60.69
2019-05-03T12:15:07.937Z,64.38
2019-05-03T12:17:50.949Z,61.55
2019-05-03T12:20:11.453Z,61.55
2019-05-03T12:22:41.744Z,62.63
2019-05-03T12:25:13.261Z,62.63
2019-05-03T12:27:44.508Z,61.07
2019-05-03T12:30:15.359Z,59.75
2019-05-03T12:32:44.734Z,61.50
2019-05-03T12:35:15.374Z,61.50
2019-05-03T12:37:44.792Z,57.49
2019-05-03T12:40:15.108Z,59.73
2019-05-03T12:42:45.420Z,56.53
2019-05-03T12:45:15.380Z,56.98
2019-05-03T12:47:45.276Z,55.93
2019-05-03T12:50:15.621Z,59.26
2019-05-03T12:52:50.520Z,59.26
2019-05-03T12:55:16.131Z,54.04
2019-05-03T12:57:45.896Z,57.78
2019-05-03T13:00:17.963Z,58.53
2019-05-03T13:02:55.045Z,58.14
2019-05-03T13:05:24.973Z,59.50
2019-05-03T13:08:15.272Z,56.46
2019-05-03T13:10:45.384Z,58.38
2019-05-03T13:13:15.189Z,62.39
2019-05-03T13:15:44.535Z,55.13
2019-05-03T13:18:15.705Z,53.81
2019-05-03T13:20:45.448Z,56.48
2019-05-03T13:23:15.050Z,54.99
2019-05-03T13:25:44.848Z,56.64
2019-05-03T13:28:15.340Z,58.48
2019-05-03T13:30:45.292Z,60.03
2019-05-03T13:33:15.271Z,55.61
2019-05-03T13:35:44.757Z,53.67
2019-05-03T13:38:14.039Z,54.09
2019-05-03T13:40:45.180Z,55.85
2019-05-03T13:43:15.044Z,56.75
2019-05-03T13:45:44.977Z,51.46
2019-05-03T13:48:15.563Z,52.91
2019-05-03T13:50:45.619Z,56.84
2019-05-03T13:53:16.158Z,61.28
2019-05-03T13:55:45.659Z,56.99
2019-05-03T13:58:14.976Z,59.06
2019-05-03T14:00:45.327Z,55.05
2019-05-03T14:03:15.301Z,55.92
2019-05-03T14:05:44.845Z,59.00
2019-05-03T14:08:15.630Z,55.52
2019-05-03T14:10:45.639Z,57.69
2019-05-03T14:13:15.426Z,53.44
2019-05-03T14:15:45.289Z,55.77
2019-05-03T14:18:15.599Z,55.77
2019-05-03T14:20:49.654Z,53.53
2019-05-03T14:23:18.996Z,53.53
2019-05-03T14:25:48.381Z,52.80
2019-05-03T14:28:17.712Z,52.80
2019-05-03T14:30:47.050Z,53.70
2019-05-03T14:33:16.372Z,53.70
2019-05-03T14:35:45.710Z,51.72
2019-05-03T14:38:15.265Z,54.00
2019-05-03T14:40:44.960Z,54.52
2019-05-03T14:43:15.677Z,54.44
2019-05-03T14:45:45.002Z,50.48
2019-05-03T14:48:15.230Z,54.27
2019-05-03T14:50:45.591Z,49.97
2019-05-03T14:53:15.050Z,50.91
2019-05-03T14:55:48.667Z,52.32
2019-05-03T14:58:37.521Z,50.86
2019-05-03T15:01:09.291Z,52.07
2019-05-03T15:03:38.619Z,52.07
2019-05-03T15:06:07.938Z,56.23
2019-05-03T15:08:37.350Z,56.21
2019-05-03T15:11:06.737Z,58.31
2019-05-03T15:13:36.072Z,58.71
2019-05-03T15:16:05.435Z,58.71
2019-05-03T15:18:34.962Z,58.82
2019-05-03T15:21:05.490Z,58.82
2019-05-03T15:23:34.943Z,59.48
2019-05-03T15:26:05.102Z,61.09
2019-05-03T15:28:35.606Z,61.09
2019-05-03T15:31:05.377Z,60.89
2019-05-03T15:33:35.344Z,60.89
2019-05-03T15:36:05.032Z,63.64
2019-05-03T15:38:36.887Z,59.50
2019-05-03T15:41:05.592Z,60.01
2019-05-03T15:43:45.451Z,60.01
2019-05-03T15:46:22.216Z,61.67
2019-05-03T15:48:54.985Z,61.67
2019-05-03T15:51:24.650Z,61.86
2019-05-03T15:53:55.134Z,61.86
2019-05-03T15:56:25.265Z,62.40
2019-05-03T15:58:55.154Z,62.40
2019-05-03T16:01:25.028Z,65.12
2019-05-03T16:03:55.578Z,65.94
2019-05-03T16:06:25.001Z,65.94
2019-05-03T16:08:55.235Z,62.05
2019-05-03T16:11:25.413Z,59.39
2019-05-03T16:13:55.468Z,59.39
2019-05-03T16:16:25.079Z,62.20
2019-05-03T16:18:54.347Z,63.65
2019-05-03T16:21:25.182Z,61.79
2019-05-03T16:23:55.567Z,61.64
2019-05-03T16:26:25.156Z,62.73
2019-05-03T16:28:56.120Z,64.34
2019-05-03T16:31:26.633Z,64.34
2019-05-03T16:33:56.033Z,64.68
2019-05-03T16:36:25.360Z,68.87
2019-05-03T16:38:55.374Z,71.43
2019-05-03T16:41:25.001Z,71.77
2019-05-03T16:43:54.614Z,72.98
2019-05-03T16:46:25.985Z,73.66
2019-05-03T16:48:55.407Z,74.99
2019-05-03T16:51:25.370Z,75.43
2019-05-03T16:53:55.107Z,76.25
2019-05-03T16:56:24.635Z,74.87
2019-05-03T16:58:56.777Z,74.87
2019-05-03T17:01:26.247Z,75.85
2019-05-03T17:03:57.222Z,75.97
2019-05-03T17:06:30.876Z,73.85
2019-05-03T17:09:16.926Z,71.27
2019-05-03T17:11:47.891Z,71.51
2019-05-03T17:14:17.715Z,67.84
2019-05-03T17:16:47.817Z,67.84
2019-05-03T17:19:17.358Z,67.82
2019-05-03T17:21:46.714Z,69.44
2019-05-03T17:24:16.056Z,69.71
2019-05-03T17:26:45.384Z,69.68
2019-05-03T17:29:14.709Z,71.59
2019-05-03T17:31:44.473Z,71.64
2019-05-03T17:34:14.510Z,70.51
2019-05-03T17:36:46.059Z,70.51
2019-05-03T17:39:18.500Z,73.32
2019-05-03T17:42:01.571Z,72.10
2019-05-03T17:44:36.837Z,72.10
2019-05-03T17:47:06.169Z,71.77
2019-05-03T17:49:35.489Z,69.17
2019-05-03T17:52:06.635Z,68.99
2019-05-03T17:54:37.933Z,70.27
2019-05-03T17:57:11.762Z,68.67
2019-05-03T17:59:48.644Z,68.67
2019-05-03T18:02:37.745Z,68.03
2019-05-03T18:05:25.684Z,67.28
2019-05-03T18:08:13.040Z,67.66
2019-05-03T18:10:43.996Z,67.03
2019-05-03T18:13:14.334Z,68.84
2019-05-03T18:15:44.945Z,67.39
2019-05-03T18:18:15.773Z,68.82
2019-05-03T18:20:45.214Z,69.38
2019-05-03T18:23:15.370Z,70.06
2019-05-03T18:25:49.811Z,70.03
2019-05-03T18:28:20.116Z,69.96
2019-05-03T18:30:49.625Z,71.58
2019-05-03T18:33:18.954Z,70.34
2019-05-03T18:35:48.282Z,70.13
2019-05-03T18:38:17.614Z,72.57
2019-05-03T18:40:46.928Z,74.89
2019-05-03T18:43:17.906Z,72.04
2019-05-03T18:46:05.495Z,72.25
2019-05-03T18:48:36.105Z,72.92
2019-05-03T18:51:05.498Z,73.40
2019-05-03T18:53:34.843Z,74.38
2019-05-03T18:58:38.581Z,78.68
2019-05-03T19:01:08.171Z,78.48
2019-05-03T19:03:37.515Z,82.24
2019-05-03T19:06:08.806Z,81.85
2019-05-03T19:08:42.192Z,84.81
2019-05-03T19:11:28.035Z,81.11
2019-05-03T19:14:02.001Z,86.77
2019-05-03T19:16:45.577Z,87.10
2019-05-03T19:19:16.619Z,86.98
2019-05-03T19:21:45.963Z,90.40
2019-05-03T19:24:15.288Z,91.12
2019-05-03T19:26:45.065Z,83.60
2019-05-03T19:29:14.869Z,83.06
2019-05-03T19:31:44.950Z,87.01
2019-05-03T19:34:15.437Z,84.94
2019-05-03T19:36:45.660Z,91.38
2019-05-03T19:39:15.240Z,90.30
2019-05-03T19:41:44.927Z,89.94
2019-05-03T19:44:15.122Z,91.24
2019-05-03T19:46:44.642Z,91.30
2019-05-03T19:49:13.931Z,91.93
2019-05-03T19:51:45.043Z,91.34
2019-05-03T19:54:14.724Z,96.14
2019-05-03T19:56:44.584Z,91.45
2019-05-03T19:59:39.925Z,90.87
2019-05-03T20:05:09.141Z,95.69
2019-05-03T20:10:39.263Z,92.37
2019-05-03T20:13:08.602Z,94.34
2019-05-03T20:15:37.931Z,90.76
2019-05-03T20:18:07.270Z,91.57
2019-05-03T20:20:36.598Z,89.75
2019-05-03T20:23:05.921Z,89.70
2019-05-03T20:25:35.546Z,90.40
2019-05-03T20:31:17.880Z,89.24
2019-05-03T20:33:47.206Z,93.95
2019-05-03T20:36:16.782Z,95.39
2019-05-03T20:38:46.174Z,96.99
2019-05-03T20:41:15.574Z,96.93
2019-05-03T20:46:44.135Z,96.99
2019-05-03T20:52:08.989Z,98.39
2019-05-03T20:54:38.318Z,99.59
2019-05-03T20:57:07.647Z,98.26
2019-05-03T20:59:44.945Z,98.24
2019-05-03T21:02:27.112Z,98.55
2019-05-03T21:04:56.470Z,98.99
2019-05-03T21:07:25.806Z,98.73
2019-05-03T21:09:55.134Z,98.96
2019-05-03T21:12:25.249Z,98.06
2019-05-03T21:15:00.955Z,100.00
2019-05-03T21:17:49.459Z,100.00
2019-05-03T21:20:37.910Z,96.66
2019-05-03T21:28:44.944Z,92.91
2019-05-03T21:31:35.233Z,93.43
2019-05-03T21:34:25.170Z,95.48
2019-05-03T21:36:59.820Z,95.46
2019-05-03T21:39:29.156Z,93.29
2019-05-03T21:41:58.487Z,94.24
2019-05-03T21:44:46.939Z,94.30
2019-05-03T21:47:35.379Z,96.03
2019-05-03T21:50:44.788Z,95.65
2019-05-03T21:53:14.751Z,94.31
2019-05-03T21:55:54.207Z,93.69
2019-05-03T21:58:25.032Z,93.59
2019-05-03T22:03:53.865Z,90.49
2019-05-03T22:06:29.155Z,90.04
2019-05-03T22:08:58.547Z,89.61
2019-05-03T22:11:27.818Z,88.61
2019-05-03T22:17:30.754Z,88.68
2019-05-03T22:28:50.947Z,88.90
2019-05-03T22:31:20.284Z,89.51
2019-05-03T22:33:49.606Z,90.74
2019-05-03T22:36:18.924Z,89.35
2019-05-03T22:38:48.258Z,87.51
2019-05-03T22:41:17.583Z,88.32
2019-05-03T22:43:46.909Z,88.12
2019-05-03T22:46:16.238Z,86.89
2019-05-03T22:48:46.642Z,88.29
2019-05-03T22:51:35.678Z,88.43
2019-05-03T22:57:07.313Z,90.42
2019-05-03T22:59:36.641Z,91.34
2019-05-03T23:02:05.988Z,88.48
2019-05-03T23:04:35.668Z,85.72
2019-05-03T23:07:24.967Z,89.39
2019-05-03T23:09:54.694Z,85.27
2019-05-03T23:12:24.102Z,89.02
2019-05-03T23:14:55.120Z,86.77
2019-05-03T23:17:30.146Z,85.21
2019-05-03T23:25:49.152Z,82.03
2019-05-03T23:28:18.476Z,83.82
2019-05-03T23:30:47.823Z,82.96
2019-05-03T23:33:17.148Z,86.27
2019-05-03T23:35:46.482Z,87.94
2019-05-03T23:38:15.819Z,90.66
2019-05-03T23:40:45.141Z,89.66
2019-05-03T23:43:14.515Z,92.28
2019-05-03T23:45:45.296Z,90.02
2019-05-03T23:48:20.443Z,91.42
2019-05-03T23:50:49.766Z,96.82
2019-05-03T23:53:19.361Z,99.03
2019-05-03T23:56:07.815Z,100.00
2019-05-03T23:58:37.150Z,100.00
